Route Details

Aircraft Information
Group: North America Fleet
Types: B738, B752, B762, B763
Route Data
Distance: 362nm
Duration: 1h 35m
Origin METAR: KATL 010352Z 26006KT 10SM BKN008 BKN035 OVC100 17/16 A3014 RMK AO2 SLP205 T01720156
Dest. METAR: KLAL 010435Z AUTO 00000KT 10SM CLR 18/16 A3020 RMK AO2 T01780158
Freight Data
(for Feb 1, 2023)
Load Factor:
43%
Manifested Cargo: 28,800lbs
Financial History
Total Freight: 146,103lbs
Average Load: 0lbs/flt
Fuel Used: 27,466lbs
Avg. Fuel Used: 0lbs/flt
Fuel Expense: $13,267
Avg. Fuel Expense: $0
Avg. Fuel Cost: $0/lbs
Total Gross Income: $359,413
Pilot Pay: $587
Total Expenses: $70,530
Total Revenue: $274,296
Average Revenue: $0

Capitol Logistics 358




KATL
Hartsfield - Jackson Atlanta International Airport
Atlanta, Georgia
KLAL
Lakeland Linder Regional Airport
Lakeland, Florida

Activity Log

Date Flight Route Aircraft Duration
01/12/2023 CPX358 BANNG3 LUCKK DCT CTY DCT HNDRX DCT LISAF DCT CIBOX DCT MOLIE DCT B738 1h 15m
09/25/2022 CPX358 BANNG2 LUCKK SZW/N0463F310 LAL B738 1h 25m
07/15/2022 CPX358 BANNG3 LUCKK DCT HONID MAATY3 B762 1h 23m